Trout Lake, MI

8:39 AM EDT on October 23, 2014 (GMT -0400)
RAWS RACO MI US | Change Station
CLOSE
Current Station
Personal Weather Station
Location: Kinross, MI
Elevation: 750 ft
Nearby Weather Stations

Elev 750 ft 46.36 °N, 84.80 °W | Updated 35 minutes ago

Partly Cloudy
Partly Cloudy
27 °F
Feels Like 27 °F
N
2
Wind Variable Wind from ENE
Gusts 3.0 mph

Today
High -- | Low -- °F
--% Chance of Precip.
Yesterday
High -- | Low -- °F
Precip. -- in
8:08 AM 6:39 PM
Waning Crescent, 0% visible
Pressure 30.18 in
Visibility 7.0 miles
Clouds Mostly Cloudy 1500 ft
Windchill 27 °F
Dew Point 26 °F
Humidity 95%
Rainfall 0.00 in
Snow Depth Not available.
UV 0 out of 12
Pollen .30 out of 12
PM2.5 Good
Flu Activity Sporadic
METAR KERY 231234Z AUTO 18005KT 7SM BKN015 00/00 A3018 RMK AO2 T00000000

More Conditions Fewer Conditions

Pressure 30.18 in
Visibility 7.0 miles
Clouds Mostly Cloudy 1500 ft
Windchill 27 °F
Dew Point 26 °F
Humidity 95%
Rainfall 0.00 in
Snow Depth Not available.
UV 0 out of 12
Pollen .30 out of 12
PM2.5 Good
Flu Activity Sporadic
METAR KERY 231234Z AUTO 18005KT 7SM BKN015 00/00 A3018 RMK AO2 T00000000

More Conditions Fewer Conditions

Nowcast | as of 8:00 am EDT on October 23, 2014

At 9 am...clear. Temperature 36. Light winds. At 11 am...mostly clear. Temperature 42. Southeast winds 5 mph. At 1 PM...mostly clear. Temperature 48. South winds 7 mph. At 3 PM...mostly clear. Temperature 51. South winds 7 mph.

×

10-Day Weather Forecast

Almanac

Astronomy

Oct. 23, 2014 Rise Set
Actual Time 8:08 AM EDT 6:39 PM EDT
Civil Twilight 7:37 AM EDT 7:10 PM EDT
Nautical Twilight 7:02 AM EDT 7:45 PM EDT
Astronomical Twilight 6:27 AM EDT 8:20 PM EDT
Moon 7:46 AM EDT 6:40 PM EDT
Length of Visible Light 11h 32m
Length of Day
10h 31m
Tomorrow will be 3m 4s shorter.
Waning Crescent, 0% of the Moon is Illuminated
Today
Waning Crescent
Oct 23
New
Oct 30
First Quarter
Nov 6
Full
Nov 14
Last Quarter

Today's Extremes

State Highs State Lows

Community

WunderPhotos

Upload Photos

1,764,214 photos uploaded!

Nearby

Air Quality

  Air Quality AQ Index Pollutant
Yesterday Good
PM2.5
Current Good
PM2.5
Thursday Good
PM2.5
Friday Good
PM2.5
Saturday Good
PM2.5
Sunday Good
PM2.5
Monday Good
PM2.5

Snow Depth

Station Depth Elevation
No new snow has been reported.

Earthquake Activity

City Distance Mag. Time & Date
No recent earthquake activity has been reported nearby.
Minimum magnitude displayed is 2.5.

Coastal Water Temperatures

Place Temperature
Mackinaw City, MI 51.1 °F
Port Inland, MI 51.1 °F
S W Pier, MI 51.1 °F

Nearby Weather Stations